createdAt,value
2018-01-24T00:02:00.952Z,98712.70
2018-01-24T00:04:29.198Z,98711.94
2018-01-24T00:06:57.486Z,98708.78
2018-01-24T00:09:25.743Z,98707.83
2018-01-24T00:11:53.985Z,98705.41
2018-01-24T00:14:22.271Z,98704.09
2018-01-24T00:16:52.071Z,98708.59
2018-01-24T00:19:20.347Z,98705.35
2018-01-24T00:21:48.655Z,98703.80
2018-01-24T00:24:16.959Z,98696.78
2018-01-24T00:26:45.192Z,98696.40
2018-01-24T00:29:13.444Z,98693.95
2018-01-24T00:31:42.447Z,98693.03
2018-01-24T00:34:11.473Z,98699.05
2018-01-24T00:36:39.715Z,98693.69
2018-01-24T00:39:07.984Z,98685.02
2018-01-24T00:41:36.256Z,98682.68
2018-01-24T00:44:04.526Z,98682.77
2018-01-24T00:46:32.775Z,98691.44
2018-01-24T00:49:01.031Z,98696.01
2018-01-24T00:51:30.071Z,98707.64
2018-01-24T00:53:58.338Z,98696.92
2018-01-24T00:56:26.575Z,98694.30
2018-01-24T00:58:55.621Z,98699.38
2018-01-24T01:01:23.871Z,98702.25
2018-01-24T01:03:52.905Z,98701.94
2018-01-24T01:06:21.184Z,98710.80
2018-01-24T01:08:49.558Z,98707.84
2018-01-24T01:11:17.873Z,98701.83
2018-01-24T01:13:46.123Z,98696.52
2018-01-24T01:16:15.135Z,98707.42
2018-01-24T01:18:44.162Z,98689.50
2018-01-24T01:21:12.446Z,98678.58
2018-01-24T01:23:40.690Z,98673.38
2018-01-24T01:26:08.939Z,98679.30
2018-01-24T01:28:37.220Z,98671.65
2018-01-24T01:31:05.479Z,98678.80
2018-01-24T01:33:34.530Z,98673.08
2018-01-24T01:36:02.771Z,98681.54
2018-01-24T01:38:31.040Z,98677.05
2018-01-24T01:40:59.289Z,98675.33
2018-01-24T01:43:27.530Z,98678.06
2018-01-24T01:45:55.790Z,98680.92
2018-01-24T01:48:32.712Z,98684.19
2018-01-24T01:51:00.987Z,98693.78
2018-01-24T01:53:29.234Z,98686.73
2018-01-24T01:55:57.500Z,98691.02
2018-01-24T01:58:26.520Z,98695.20
2018-01-24T02:00:54.785Z,98691.64
2018-01-24T02:03:23.065Z,98693.97
2018-01-24T02:05:51.391Z,98692.86
2018-01-24T02:08:20.430Z,98681.44
2018-01-24T02:10:48.742Z,98685.91
2018-01-24T02:13:17.016Z,98686.65
2018-01-24T02:15:45.353Z,98679.62
2018-01-24T02:18:13.550Z,98676.98
2018-01-24T02:20:42.570Z,98680.94
2018-01-24T02:23:10.814Z,98673.41
2018-01-24T02:25:39.083Z,98677.06
2018-01-24T02:28:07.358Z,98677.07
2018-01-24T02:30:35.656Z,98666.58
2018-01-24T02:33:03.896Z,98670.13
2018-01-24T02:35:32.924Z,98671.06
2018-01-24T02:38:01.183Z,98681.05
2018-01-24T02:40:30.214Z,98675.96
2018-01-24T02:42:58.451Z,98673.90
2018-01-24T02:45:26.716Z,98676.27
2018-01-24T02:47:54.972Z,98673.70
2018-01-24T02:50:23.242Z,98676.55
2018-01-24T02:52:52.334Z,98675.63
2018-01-24T02:55:20.630Z,98672.05
2018-01-24T02:57:48.937Z,98669.47
2018-01-24T03:00:17.985Z,98660.56
2018-01-24T03:02:46.243Z,98670.47
2018-01-24T03:05:14.523Z,98663.55
2018-01-24T03:07:43.539Z,98665.61
2018-01-24T03:10:11.799Z,98659.67
2018-01-24T03:12:41.173Z,98669.17
2018-01-24T03:15:09.428Z,98659.06
2018-01-24T03:17:38.468Z,98658.56
2018-01-24T03:20:06.775Z,98659.28
2018-01-24T03:22:35.042Z,98665.19
2018-01-24T03:25:03.285Z,98661.61
2018-01-24T03:27:32.315Z,98662.85
2018-01-24T03:30:00.555Z,98665.48
2018-01-24T03:32:28.824Z,98661.82
2018-01-24T03:34:57.067Z,98658.87
2018-01-24T03:37:26.094Z,98662.84
2018-01-24T03:39:54.332Z,98656.84
2018-01-24T03:42:22.639Z,98656.00
2018-01-24T03:44:50.952Z,98649.39
2018-01-24T03:47:19.327Z,98653.28
2018-01-24T03:49:48.372Z,98650.14
2018-01-24T03:52:16.658Z,98645.37
2018-01-24T03:54:44.912Z,98641.19
2018-01-24T03:57:13.936Z,98643.13
2018-01-24T03:59:42.182Z,98651.31
2018-01-24T04:02:10.439Z,98653.63
2018-01-24T04:04:38.679Z,98660.17
2018-01-24T04:07:07.727Z,98659.03
2018-01-24T04:09:35.984Z,98650.78
2018-01-24T04:12:05.065Z,98650.50
2018-01-24T04:14:33.303Z,98653.13
2018-01-24T04:17:01.563Z,98651.70
2018-01-24T04:19:30.583Z,98661.39
2018-01-24T04:21:59.600Z,98657.92
2018-01-24T04:24:27.859Z,98660.16
2018-01-24T04:26:56.119Z,98651.89
2018-01-24T04:29:24.368Z,98657.92
2018-01-24T04:31:52.723Z,98651.19
2018-01-24T04:34:21.069Z,98656.91
2018-01-24T04:36:49.355Z,98638.75
2018-01-24T04:39:17.733Z,98651.10
2018-01-24T04:41:46.004Z,98658.11
2018-01-24T04:44:15.000Z,98657.10
2018-01-24T04:46:44.015Z,98656.47
2018-01-24T04:49:13.331Z,98659.73
2018-01-24T04:51:42.626Z,98653.44
2018-01-24T04:54:10.962Z,98652.22
2018-01-24T04:56:39.970Z,98645.06
2018-01-24T04:59:08.271Z,98648.72
2018-01-24T05:01:36.861Z,98643.23
2018-01-24T05:04:05.608Z,98649.34
2018-01-24T05:06:33.916Z,98650.55
2018-01-24T05:09:03.019Z,98648.69
2018-01-24T05:11:32.354Z,98648.50
2018-01-24T05:14:00.811Z,98646.09
2018-01-24T05:16:29.059Z,98649.63
2018-01-24T05:18:57.676Z,98649.64
2018-01-24T05:21:32.432Z,98646.67
2018-01-24T05:24:01.395Z,98645.98
2018-01-24T05:26:30.055Z,98650.64
2018-01-24T05:28:59.129Z,98641.98
2018-01-24T05:31:27.555Z,98637.63
2018-01-24T05:33:56.617Z,98648.12
2018-01-24T05:36:25.083Z,98644.05
2018-01-24T05:38:53.350Z,98636.12
2018-01-24T05:41:22.413Z,98651.99
2018-01-24T05:43:50.967Z,98655.34
2018-01-24T05:46:20.242Z,98652.28
2018-01-24T05:48:48.469Z,98651.69
2018-01-24T05:51:16.706Z,98654.02
2018-01-24T05:53:45.271Z,98653.98
2018-01-24T05:56:13.549Z,98657.86
2018-01-24T05:58:42.014Z,98658.68
2018-01-24T06:01:11.514Z,98662.33
2018-01-24T06:03:40.650Z,98665.67
2018-01-24T06:06:10.077Z,98651.15
2018-01-24T06:08:38.850Z,98651.34
2018-01-24T06:11:07.474Z,98653.16
2018-01-24T06:13:35.788Z,98657.23
2018-01-24T06:16:04.089Z,98655.58
2018-01-24T06:18:33.391Z,98648.42
2018-01-24T06:21:01.973Z,98649.34
2018-01-24T06:23:30.491Z,98643.95
2018-01-24T06:25:58.938Z,98644.17
2018-01-24T06:28:28.044Z,98643.11
2018-01-24T06:30:56.585Z,98645.50
2018-01-24T06:33:24.884Z,98647.01
2018-01-24T06:35:53.763Z,98651.66
2018-01-24T06:38:22.121Z,98646.59
2018-01-24T06:40:51.167Z,98649.50
2018-01-24T06:43:19.656Z,98645.45
2018-01-24T06:45:47.931Z,98647.70
2018-01-24T06:48:16.436Z,98636.79
2018-01-24T06:50:44.977Z,98643.36
2018-01-24T06:53:13.471Z,98645.19
2018-01-24T06:55:41.926Z,98640.17
2018-01-24T06:58:10.200Z,98643.72
2018-01-24T07:00:38.792Z,98644.03
2018-01-24T07:03:07.298Z,98642.98
2018-01-24T07:05:36.314Z,98645.45
2018-01-24T07:08:04.770Z,98636.31
2018-01-24T07:10:33.068Z,98633.59
2018-01-24T07:13:19.745Z,98636.65
2018-01-24T07:15:48.024Z,98634.58
2018-01-24T07:18:16.393Z,98634.55
2018-01-24T07:20:44.770Z,98636.97
2018-01-24T07:23:13.232Z,98632.59
2018-01-24T07:25:41.566Z,98624.34
2018-01-24T07:28:10.181Z,98623.02
2018-01-24T07:30:38.492Z,98617.44
2018-01-24T07:33:06.962Z,98619.98
2018-01-24T07:35:35.231Z,98616.43
2018-01-24T07:38:03.800Z,98620.20
2018-01-24T07:40:33.520Z,98618.98
2018-01-24T07:43:02.548Z,98619.20
2018-01-24T07:45:31.252Z,98616.05
2018-01-24T07:47:59.987Z,98609.11
2018-01-24T07:50:28.770Z,98607.60
2018-01-24T07:52:57.402Z,98606.99
2018-01-24T07:55:25.743Z,98600.37
2018-01-24T07:57:54.036Z,98608.63
2018-01-24T08:00:22.427Z,98605.38
2018-01-24T08:02:50.787Z,98607.20
2018-01-24T08:05:20.029Z,98609.13
2018-01-24T08:07:48.311Z,98608.11
2018-01-24T08:10:16.903Z,98595.17
2018-01-24T08:12:45.471Z,98594.72
2018-01-24T08:15:14.780Z,98591.75
2018-01-24T08:17:43.511Z,98593.20
2018-01-24T08:20:12.026Z,98593.70
2018-01-24T08:22:41.750Z,98593.17
2018-01-24T08:25:10.143Z,98597.72
2018-01-24T08:27:38.924Z,98601.34
2018-01-24T08:30:07.225Z,98601.67
2018-01-24T08:32:35.905Z,98602.59
2018-01-24T08:35:04.159Z,98602.01
2018-01-24T08:37:32.806Z,98602.69
2018-01-24T08:40:01.253Z,98595.59
2018-01-24T08:42:29.566Z,98593.95
2018-01-24T08:44:59.014Z,98592.70
2018-01-24T08:47:27.746Z,98596.96
2018-01-24T08:49:56.014Z,98588.77
2018-01-24T08:52:24.746Z,98595.23
2018-01-24T08:54:52.994Z,98591.93
2018-01-24T08:57:21.464Z,98598.81
2018-01-24T09:00:13.208Z,98585.88
2018-01-24T09:03:05.184Z,98593.72
2018-01-24T09:05:56.698Z,98587.76
2018-01-24T13:32:24.125Z,98283.22
2018-01-24T13:34:52.418Z,98285.50
2018-01-24T13:37:22.252Z,98284.98
2018-01-24T13:39:50.596Z,98282.25
2018-01-24T13:42:18.872Z,98281.59
2018-01-24T13:44:47.164Z,98283.16
2018-01-24T13:47:15.460Z,98284.81
2018-01-24T13:49:43.749Z,98270.08
2018-01-24T13:52:12.106Z,98270.59
2018-01-24T13:54:41.218Z,98272.55
2018-01-24T13:57:10.283Z,98266.52
2018-01-24T13:59:40.552Z,98260.29
2018-01-24T14:02:09.058Z,98257.65
2018-01-24T14:04:38.350Z,98261.16
2018-01-24T14:07:07.809Z,98250.30
2018-01-24T14:09:37.348Z,98253.19
2018-01-24T14:12:05.952Z,98246.06
2018-01-24T14:14:34.485Z,98243.13
2018-01-24T14:17:03.992Z,98240.87
2018-01-24T14:19:32.689Z,98234.11
2018-01-24T14:22:01.127Z,98238.54
2018-01-24T14:24:34.148Z,98228.55
2018-01-24T14:27:04.129Z,98226.95
2018-01-24T14:29:33.613Z,98223.09
2018-01-24T14:32:03.086Z,98226.00
2018-01-24T14:34:31.713Z,98218.20
2018-01-24T14:37:01.108Z,98214.98
2018-01-24T14:39:29.514Z,98208.47
2018-01-24T14:41:58.197Z,98208.80
2018-01-24T14:44:26.677Z,98213.36
2018-01-24T14:46:56.047Z,98219.05
2018-01-24T14:49:24.639Z,98196.53
2018-01-24T14:51:54.443Z,98193.81
2018-01-24T14:54:23.174Z,98196.73
2018-01-24T14:56:52.558Z,98186.16
2018-01-24T14:59:21.420Z,98185.23
2018-01-24T15:01:49.772Z,98175.82
2018-01-24T15:04:18.380Z,98180.63
2018-01-24T15:06:46.804Z,98173.63
2018-01-24T15:09:16.484Z,98166.27
2018-01-24T15:11:45.043Z,98160.41
2018-01-24T15:14:13.755Z,98164.96
2018-01-24T15:16:42.499Z,98157.02
2018-01-24T15:19:11.268Z,98159.62
2018-01-24T15:21:39.805Z,98157.28
2018-01-24T15:24:08.208Z,98158.49
2018-01-24T15:26:36.551Z,98157.59
2018-01-24T15:29:04.850Z,98153.26
2018-01-24T15:31:33.618Z,98144.88
2018-01-24T15:34:02.128Z,98153.57
2018-01-24T15:36:31.727Z,98163.58
2018-01-24T15:39:00.031Z,98155.52
2018-01-24T15:41:28.968Z,98149.23
2018-01-24T15:43:57.700Z,98153.39
2018-01-24T15:46:26.251Z,98149.04
2018-01-24T15:48:55.394Z,98140.40
2018-01-24T15:51:24.094Z,98139.22
2018-01-24T15:53:52.916Z,98135.63
2018-01-24T15:56:21.561Z,98134.16
2018-01-24T15:58:49.970Z,98133.97
2018-01-24T16:01:19.645Z,98123.61
2018-01-24T16:03:48.494Z,98114.30
2018-01-24T16:06:18.511Z,98124.88
2018-01-24T16:08:48.305Z,98115.27
2018-01-24T16:11:16.993Z,98111.75
2018-01-24T16:13:46.087Z,98112.36
2018-01-24T16:16:14.601Z,98102.84
2018-01-24T16:18:43.300Z,98093.79
2018-01-24T16:21:11.736Z,98099.69
2018-01-24T16:23:40.559Z,98103.23
2018-01-24T16:26:10.915Z,98091.91
2018-01-24T16:28:39.547Z,98094.41
2018-01-24T16:31:08.013Z,98087.63
2018-01-24T16:33:36.938Z,98082.72
2018-01-24T16:36:05.660Z,98083.81
2018-01-24T16:38:34.402Z,98081.69
2018-01-24T16:41:02.846Z,98070.58
2018-01-24T16:43:31.499Z,98059.34
2018-01-24T16:45:59.868Z,98059.05
2018-01-24T16:48:31.397Z,98048.42
2018-01-24T16:50:59.862Z,98046.74
2018-01-24T16:53:28.450Z,98047.50
2018-01-24T16:55:56.923Z,98047.94
2018-01-24T16:58:25.471Z,98044.36
2018-01-24T17:00:54.061Z,98030.84
2018-01-24T17:03:22.829Z,98036.94
2018-01-24T17:05:51.423Z,98031.66
2018-01-24T17:08:19.997Z,98039.70
2018-01-24T17:10:48.588Z,98042.02
2018-01-24T17:13:16.983Z,98048.25
2018-01-24T17:15:46.134Z,98044.59
2018-01-24T17:18:14.545Z,98042.30
2018-01-24T17:20:43.022Z,98040.80
2018-01-24T17:23:11.771Z,98040.83
2018-01-24T17:25:40.213Z,98041.42
2018-01-24T17:28:09.410Z,98046.73
2018-01-24T17:30:37.800Z,98041.87
2018-01-24T17:33:06.895Z,98049.33
2018-01-24T17:35:35.479Z,98045.30
2018-01-24T17:38:04.262Z,98038.41
2018-01-24T17:40:33.975Z,98035.36
2018-01-24T17:43:02.390Z,98036.86
2018-01-24T17:45:31.640Z,98034.44
2018-01-24T17:48:00.137Z,98026.35
2018-01-24T17:50:28.549Z,98043.42
2018-01-24T17:52:57.206Z,98039.50
2018-01-24T17:55:26.641Z,98044.92
2018-01-24T17:57:55.238Z,98037.37
2018-01-24T18:00:23.575Z,98049.06
2018-01-24T18:02:52.454Z,98026.44
2018-01-24T18:05:20.758Z,98034.83
2018-01-24T18:07:49.076Z,98032.39
2018-01-24T18:10:17.414Z,98037.59
2018-01-24T18:12:45.748Z,98033.78
2018-01-24T18:15:14.867Z,98038.94
2018-01-24T18:17:44.055Z,98037.29
2018-01-24T18:20:12.382Z,98033.87
2018-01-24T18:22:40.712Z,98035.75
2018-01-24T18:25:09.047Z,98030.20
2018-01-24T18:27:38.185Z,98035.53
2018-01-24T18:30:06.527Z,98028.81
2018-01-24T18:32:35.639Z,98030.52
2018-01-24T18:35:03.986Z,98022.62
2018-01-24T18:37:32.295Z,98023.34
2018-01-24T18:40:00.644Z,98006.32
2018-01-24T18:42:28.972Z,98010.70
2018-01-24T18:44:58.542Z,98014.34
2018-01-24T18:47:27.639Z,98023.46
2018-01-24T18:49:57.056Z,98023.80
2018-01-24T18:52:25.432Z,98030.61
2018-01-24T18:54:53.691Z,98029.65
2018-01-24T18:57:22.018Z,98019.77
2018-01-24T18:59:50.359Z,98022.04
2018-01-24T19:02:19.554Z,98022.04
2018-01-24T19:04:47.908Z,98020.45
2018-01-24T19:07:17.000Z,98024.69
2018-01-24T19:09:45.297Z,98021.63
2018-01-24T19:12:13.701Z,98021.97
2018-01-24T19:14:42.826Z,98029.00
2018-01-24T19:17:11.890Z,98018.61
2018-01-24T19:19:40.175Z,98025.42
2018-01-24T19:22:08.493Z,98023.53
2018-01-24T19:24:37.615Z,98020.63
2018-01-24T19:27:06.659Z,98030.34
2018-01-24T19:29:34.948Z,98019.18
2018-01-24T19:32:03.249Z,98007.77
2018-01-24T19:34:31.582Z,97996.04
2018-01-24T19:37:00.677Z,98007.48
2018-01-24T19:39:29.793Z,98000.61
2018-01-24T19:41:58.092Z,98003.37
2018-01-24T19:44:27.495Z,98002.33
2018-01-24T19:46:56.585Z,98001.53
2018-01-24T19:49:25.722Z,98003.95
2018-01-24T19:51:54.749Z,97994.20
2018-01-24T19:54:23.083Z,98004.17
2018-01-24T19:56:51.392Z,97995.13
2018-01-24T19:59:19.664Z,97999.62
2018-01-24T20:01:48.804Z,97992.41
2018-01-24T20:04:17.949Z,97998.36
2018-01-24T20:06:46.262Z,98002.25
2018-01-24T20:09:14.542Z,98010.13
2018-01-24T20:11:42.890Z,98005.52
2018-01-24T20:14:11.207Z,97997.02
2018-01-24T20:16:39.515Z,98000.72
2018-01-24T20:19:07.832Z,97999.27
2018-01-24T20:21:36.182Z,98003.65
2018-01-24T20:24:04.545Z,97999.53
2018-01-24T20:26:33.791Z,98010.91
2018-01-24T20:29:02.162Z,98002.33
2018-01-24T20:31:30.523Z,98006.13
2018-01-24T20:33:58.922Z,98006.95
2018-01-24T20:36:27.230Z,98014.89
2018-01-24T20:38:55.500Z,98008.02
2018-01-24T20:41:23.760Z,98005.69
2018-01-24T20:43:52.011Z,98001.05
2018-01-24T20:46:20.333Z,97996.55
2018-01-24T20:48:49.100Z,97999.93
2018-01-24T20:51:17.565Z,97994.64
2018-01-24T20:53:45.997Z,97998.02
2018-01-24T20:56:14.471Z,98003.14
2018-01-24T20:58:42.719Z,97995.56
2018-01-24T21:01:11.771Z,98000.95
2018-01-24T21:03:40.916Z,97999.34
2018-01-24T21:06:09.192Z,98002.77
2018-01-24T21:08:37.452Z,98005.61
2018-01-24T21:11:05.838Z,98010.02
2018-01-24T21:13:34.191Z,98009.58
2018-01-24T21:16:03.253Z,98002.84
2018-01-24T21:18:31.559Z,98007.34
2018-01-24T21:20:59.885Z,98004.97
2018-01-24T21:23:28.959Z,98005.63
2018-01-24T21:25:57.284Z,98005.86
2018-01-24T21:28:43.161Z,98000.38
2018-01-24T21:31:29.352Z,97999.91
2018-01-24T21:34:15.290Z,98006.93
2018-01-24T21:36:58.428Z,98002.22
2018-01-24T21:39:27.431Z,98001.81
2018-01-24T21:41:56.464Z,97997.78
2018-01-24T21:44:24.763Z,98002.28
2018-01-24T21:46:53.076Z,97998.29
2018-01-24T21:49:21.319Z,98008.52
2018-01-24T21:51:50.428Z,98010.85
2018-01-24T21:54:19.449Z,98006.02
2018-01-24T21:56:47.793Z,98005.20
2018-01-24T21:59:16.095Z,98010.53
2018-01-24T22:01:44.430Z,98006.50
2018-01-24T22:04:12.698Z,98015.67
2018-01-24T22:06:41.729Z,98013.34
2018-01-24T22:09:10.748Z,98008.17
2018-01-24T22:11:39.053Z,98006.50
2018-01-24T22:14:07.307Z,98006.39
2018-01-24T22:16:35.574Z,97997.80
2018-01-24T22:19:04.616Z,97996.74
2018-01-24T22:21:33.128Z,97993.61
2018-01-24T22:24:01.388Z,98002.28
2018-01-24T22:26:29.668Z,98000.48
2018-01-24T22:28:57.908Z,98003.90
2018-01-24T22:31:26.178Z,98000.23
2018-01-24T22:33:54.435Z,98002.80
2018-01-24T22:36:22.715Z,97998.30
2018-01-24T22:38:51.740Z,97995.01
2018-01-24T22:41:20.776Z,98002.00
2018-01-24T22:43:49.049Z,97998.83
2018-01-24T22:46:17.346Z,98009.91
2018-01-24T22:48:45.617Z,97998.86
2018-01-24T22:51:13.939Z,98003.14
2018-01-24T22:53:42.201Z,98011.02
2018-01-24T22:56:10.491Z,98007.94
2018-01-24T22:58:38.806Z,98009.67
2018-01-24T23:01:07.049Z,98013.05
2018-01-24T23:03:35.313Z,98016.89
2018-01-24T23:06:03.570Z,98020.52
2018-01-24T23:08:31.835Z,98015.27
2018-01-24T23:11:00.079Z,98019.45
2018-01-24T23:13:29.128Z,98016.58
2018-01-24T23:15:57.364Z,98010.66
2018-01-24T23:18:26.400Z,98014.02
2018-01-24T23:20:54.647Z,98008.88
2018-01-24T23:23:22.910Z,98001.88
2018-01-24T23:25:51.151Z,98004.56
2018-01-24T23:28:20.179Z,98010.72
2018-01-24T23:30:48.468Z,98011.36
2018-01-24T23:33:16.762Z,98010.59
2018-01-24T23:35:45.040Z,98011.99
2018-01-24T23:38:13.333Z,98012.10
2018-01-24T23:40:41.579Z,98004.59
2018-01-24T23:43:09.852Z,98000.73
2018-01-24T23:45:38.122Z,98006.84
2018-01-24T23:48:06.391Z,98006.05
2018-01-24T23:50:34.669Z,98002.08
2018-01-24T23:53:03.699Z,98001.22
2018-01-24T23:55:31.947Z,98001.83
2018-01-24T23:58:00.231Z,98005.40
